Time;durP1;ratioP1;P1;durP2;ratioP2;P2;SDS_P1;SDS_P2;PMS_P1;PMS_P2;Temp;Humidity;BMP_temperature;BMP_pressure;BME280_temperature;BME280_humidity;BME280_pressure;Samples;Min_cycle;Max_cycle;Signal;HPM_P1;HPM_P2
2021/12/22 00:06:57;;;;;;;32.10;18.38;;;;;;;;;;21092270;28;20051;-57
2021/12/22 00:16:59;;;;;;;29.33;18.15;;;;;;;;;;21090336;28;20052;-57
2021/12/22 00:27:03;;;;;;;33.40;17.75;;;;;;;;;;21089638;28;20063;-57
2021/12/22 00:37:05;;;;;;;31.58;18.20;;;;;;;;;;21087579;28;20047;-57
2021/12/22 00:47:08;;;;;;;34.95;19.00;;;;;;;;;;21088686;28;20413;-57
2021/12/22 00:57:11;;;;;;;38.22;21.92;;;;;;;;;;21087103;28;20425;-57
2021/12/22 01:07:12;;;;;;;35.85;19.27;;;;;;;;;;21086265;28;20050;-58
2021/12/22 01:17:16;;;;;;;28.25;17.77;;;;;;;;;;21086534;28;20044;-57
2021/12/22 01:27:24;;;;;;;38.65;20.42;;;;;;;;;;21085032;28;20044;-58
2021/12/22 01:37:26;;;;;;;30.80;17.92;;;;;;;;;;21084229;28;20044;-54
2021/12/22 01:57:50;;;;;;;33.83;19.42;;;;;;;;;;21082053;28;20059;-56
2021/12/22 02:07:56;;;;;;;32.35;19.15;;;;;;;;;;21081650;28;20379;-56
2021/12/22 02:18:01;;;;;;;36.20;20.00;;;;;;;;;;21080563;28;20048;-57
2021/12/22 02:28:05;;;;;;;38.87;21.87;;;;;;;;;;21081018;28;20047;-56
2021/12/22 02:38:14;;;;;;;;;;;;;;;;;;21079467;28;20052;-57
2021/12/22 02:48:19;;;;;;;42.22;24.27;;;;;;;;;;21078851;28;19920;-55
2021/12/22 02:59:11;;;;;;;43.85;24.52;;;;;;;;;;21068582;28;20082;-56
2021/12/22 03:09:35;;;;;;;40.80;23.13;;;;;;;;;;21105741;28;20051;-55
2021/12/22 03:19:40;;;;;;;43.90;23.63;;;;;;;;;;20847192;28;20141;-57
2021/12/22 03:29:48;;;;;;;37.78;22.80;;;;;;;;;;20847406;28;20072;-56
2021/12/22 03:39:52;;;;;;;38.63;23.73;;;;;;;;;;20846856;28;20053;-57
2021/12/22 03:49:55;;;;;;;42.75;23.92;;;;;;;;;;20938495;28;20135;-58
2021/12/22 03:59:59;;;;;;;42.55;25.10;;;;;;;;;;21104247;28;20174;-57
2021/12/22 04:10:20;;;;;;;44.93;23.90;;;;;;;;;;21100761;28;20048;-56
2021/12/22 04:20:27;;;;;;;44.92;23.73;;;;;;;;;;21090883;28;20055;-56
2021/12/22 04:30:38;;;;;;;39.08;24.08;;;;;;;;;;21089516;28;20044;-58
2021/12/22 04:40:43;;;;;;;38.50;21.13;;;;;;;;;;21088269;28;20063;-56
2021/12/22 04:50:46;;;;;;;33.13;20.60;;;;;;;;;;21087400;28;20052;-57
2021/12/22 05:00:47;;;;;;;33.17;19.88;;;;;;;;;;21087167;28;20087;-59
2021/12/22 05:10:49;;;;;;;37.40;20.23;;;;;;;;;;21087395;28;20379;-57
2021/12/22 05:20:52;;;;;;;33.47;20.15;;;;;;;;;;21084772;28;20052;-58
2021/12/22 05:30:53;;;;;;;36.92;19.92;;;;;;;;;;21085058;28;20040;-57
2021/12/22 05:40:55;;;;;;;34.92;19.67;;;;;;;;;;21083551;28;20056;-57
2021/12/22 05:50:57;;;;;;;31.80;19.83;;;;;;;;;;21082879;28;20073;-56
2021/12/22 06:00:59;;;;;;;36.50;19.48;;;;;;;;;;21082547;28;20084;-57
2021/12/22 06:11:03;;;;;;;29.33;19.80;;;;;;;;;;21080727;28;20405;-57
2021/12/22 06:21:05;;;;;;;28.33;19.13;;;;;;;;;;21080426;28;20413;-56
2021/12/22 06:31:06;;;;;;;31.13;18.90;;;;;;;;;;21080967;28;20079;-58
2021/12/22 06:41:08;;;;;;;35.90;21.50;;;;;;;;;;21078511;28;20048;-58
2021/12/22 06:51:10;;;;;;;44.20;21.80;;;;;;;;;;21079231;28;20048;-55
2021/12/22 07:01:17;;;;;;;36.72;21.55;;;;;;;;;;21079229;28;20048;-56
2021/12/22 07:11:19;;;;;;;35.33;20.05;;;;;;;;;;21081187;28;20048;-58
2021/12/22 07:21:20;;;;;;;32.70;19.95;;;;;;;;;;21083234;28;20064;-59
2021/12/22 07:31:23;;;;;;;34.08;20.23;;;;;;;;;;21081579;28;20047;-56
2021/12/22 07:41:25;;;;;;;38.63;21.45;;;;;;;;;;21076530;28;20053;-56
2021/12/22 07:51:27;;;;;;;34.60;19.48;;;;;;;;;;21089991;28;20539;-59
2021/12/22 08:01:30;;;;;;;32.50;18.40;;;;;;;;;;21093046;28;20059;-60
2021/12/22 08:11:32;;;;;;;34.72;19.70;;;;;;;;;;21092416;28;20059;-54
2021/12/22 08:21:38;;;;;;;44.10;22.02;;;;;;;;;;21092658;28;20392;-58
2021/12/22 08:31:42;;;;;;;30.10;19.77;;;;;;;;;;21092674;28;20542;-59
2021/12/22 08:42:04;;;;;;;32.85;18.88;;;;;;;;;;21090525;28;20048;-58
2021/12/22 08:52:11;;;;;;;29.10;18.55;;;;;;;;;;21089111;28;20048;-59
2021/12/22 09:02:16;;;;;;;;;;;;;;;;;;21089144;28;20048;-59
2021/12/22 09:12:19;;;;;;;30.80;18.05;;;;;;;;;;21087345;28;19920;-58
2021/12/22 09:22:22;;;;;;;33.42;20.50;;;;;;;;;;21085438;28;20063;-59
2021/12/22 09:32:26;;;;;;;35.75;19.83;;;;;;;;;;21085230;28;20044;-59
2021/12/22 09:42:27;;;;;;;32.97;21.25;;;;;;;;;;21084141;28;20052;-58
2021/12/22 09:52:31;;;;;;;37.42;21.48;;;;;;;;;;21083294;28;20048;-59
2021/12/22 10:02:32;;;;;;;32.53;20.65;;;;;;;;;;21082404;28;20052;-58
2021/12/22 10:12:36;;;;;;;22.38;15.48;;;;;;;;;;21081985;28;20052;-60
2021/12/22 10:22:39;;;;;;;36.17;14.95;;;;;;;;;;21079700;28;20051;-59
2021/12/22 10:32:42;;;;;;;21.25;14.18;;;;;;;;;;21079558;28;20063;-59
2021/12/22 10:42:47;;;;;;;20.23;13.73;;;;;;;;;;21078234;28;20084;-57
2021/12/22 10:52:50;;;;;;;20.75;12.23;;;;;;;;;;21076778;28;20528;-62
2021/12/22 11:03:05;;;;;;;23.50;14.13;;;;;;;;;;21078573;28;20055;-58
2021/12/22 11:13:08;;;;;;;26.85;13.20;;;;;;;;;;21076691;28;20549;-59
2021/12/22 11:23:12;;;;;;;18.60;12.35;;;;;;;;;;21084263;28;20181;-57
2021/12/22 11:33:15;;;;;;;13.98;8.95;;;;;;;;;;21092811;28;20483;-58
2021/12/22 11:43:20;;;;;;;22.80;10.75;;;;;;;;;;21092266;28;20489;-59
2021/12/22 11:53:23;;;;;;;14.55;9.25;;;;;;;;;;21091704;28;20048;-59
2021/12/22 12:03:28;;;;;;;12.00;8.30;;;;;;;;;;21090911;28;20083;-60
2021/12/22 12:23:45;;;;;;;14.02;8.55;;;;;;;;;;21089824;28;20048;-57
2021/12/22 12:33:49;;;;;;;11.98;8.07;;;;;;;;;;21086942;28;20058;-58
2021/12/22 12:43:56;;;;;;;12.75;7.57;;;;;;;;;;21087118;28;20060;-58
2021/12/22 12:53:59;;;;;;;9.93;7.50;;;;;;;;;;21086479;28;20048;-60
2021/12/22 13:04:01;;;;;;;11.95;7.72;;;;;;;;;;21086340;28;20045;-60
2021/12/22 13:24:32;;;;;;;10.63;5.75;;;;;;;;;;21084683;28;20135;-59
2021/12/22 13:34:46;;;;;;;7.50;4.88;;;;;;;;;;21083370;28;20483;-61
2021/12/22 13:44:50;;;;;;;9.00;5.82;;;;;;;;;;21064972;28;20048;-58
2021/12/22 13:54:54;;;;;;;9.32;5.35;;;;;;;;;;21082147;28;20459;-59
2021/12/22 14:05:11;;;;;;;12.97;6.13;;;;;;;;;;21083092;28;20464;-57
2021/12/22 14:15:17;;;;;;;8.50;4.18;;;;;;;;;;21081388;28;20662;-59
2021/12/22 14:25:25;;;;;;;7.57;4.03;;;;;;;;;;21080016;28;20590;-58
2021/12/22 14:35:30;;;;;;;8.38;4.10;;;;;;;;;;21078899;28;20044;-59
2021/12/22 14:46:05;;;;;;;7.53;3.15;;;;;;;;;;21080142;28;20066;-61
2021/12/22 14:56:10;;;;;;;4.82;3.22;;;;;;;;;;20819543;28;20089;-62
2021/12/22 15:06:18;;;;;;;12.45;4.47;;;;;;;;;;20819781;28;20077;-60
2021/12/22 15:16:22;;;;;;;8.80;4.95;;;;;;;;;;20819534;28;20464;-57
2021/12/22 15:26:25;;;;;;;5.20;3.00;;;;;;;;;;20910683;28;20048;-60
2021/12/22 15:36:27;;;;;;;6.93;3.20;;;;;;;;;;21077248;28;20131;-60
2021/12/22 15:46:29;;;;;;;7.18;4.13;;;;;;;;;;21076163;28;20048;-62
2021/12/22 15:56:32;;;;;;;9.93;4.15;;;;;;;;;;21073798;28;20097;-61
2021/12/22 16:06:34;;;;;;;8.93;3.55;;;;;;;;;;21079107;28;20478;-58
2021/12/22 16:16:37;;;;;;;6.53;3.78;;;;;;;;;;21088161;28;20044;-58
2021/12/22 16:26:40;;;;;;;9.95;4.07;;;;;;;;;;21075650;28;20078;-60
2021/12/22 16:36:43;;;;;;;6.88;3.42;;;;;;;;;;21088529;28;20056;-61
2021/12/22 16:46:46;;;;;;;7.53;3.03;;;;;;;;;;21067441;28;20048;-58
2021/12/22 16:56:48;;;;;;;8.07;3.60;;;;;;;;;;21015180;28;20060;-62
2021/12/22 17:06:52;;;;;;;8.13;4.65;;;;;;;;;;21002471;28;20049;-60
2021/12/22 17:17:04;;;;;;;15.60;7.68;;;;;;;;;;21000330;28;20414;-59
2021/12/22 17:27:07;;;;;;;11.98;4.40;;;;;;;;;;20999476;28;20107;-62
2021/12/22 17:37:10;;;;;;;8.68;4.68;;;;;;;;;;21000041;28;20056;-63
2021/12/22 17:47:12;;;;;;;7.82;5.45;;;;;;;;;;20997776;28;20056;-59
2021/12/22 17:57:15;;;;;;;13.20;6.90;;;;;;;;;;20996508;28;20205;-59
2021/12/22 18:07:18;;;;;;;15.10;8.43;;;;;;;;;;21026571;28;20524;-64
2021/12/22 18:17:20;;;;;;;11.38;7.43;;;;;;;;;;21074037;28;20135;-61
2021/12/22 18:27:24;;;;;;;13.68;7.65;;;;;;;;;;21076105;28;20040;-61
2021/12/22 18:37:28;;;;;;;;;;;;;;;;;;21075701;28;20059;-62
2021/12/22 18:47:30;;;;;;;14.63;8.15;;;;;;;;;;21056551;28;20378;-62
2021/12/22 18:57:33;;;;;;;19.67;11.13;;;;;;;;;;21071777;28;20090;-63
2021/12/22 19:07:35;;;;;;;26.90;14.98;;;;;;;;;;21075573;28;20037;-61
2021/12/22 19:17:38;;;;;;;14.32;9.63;;;;;;;;;;21073149;28;20074;-62
2021/12/22 19:27:41;;;;;;;22.98;15.27;;;;;;;;;;21074356;28;20048;-62
2021/12/22 19:37:44;;;;;;;20.52;12.90;;;;;;;;;;21075731;28;20052;-61
2021/12/22 19:47:47;;;;;;;27.13;16.52;;;;;;;;;;21088108;28;20052;-62
2021/12/22 19:57:49;;;;;;;36.95;26.38;;;;;;;;;;21089695;28;20056;-62
2021/12/22 20:07:51;;;;;;;37.63;26.42;;;;;;;;;;21089778;28;20048;-64
2021/12/22 20:17:53;;;;;;;22.98;15.00;;;;;;;;;;21088864;28;20089;-62
2021/12/22 20:27:55;;;;;;;33.95;23.75;;;;;;;;;;21088108;28;20126;-61
2021/12/22 20:38:02;;;;;;;22.13;15.70;;;;;;;;;;21087488;28;20081;-64
2021/12/22 20:48:04;;;;;;;24.83;16.38;;;;;;;;;;21086572;28;20048;-62
2021/12/22 20:58:06;;;;;;;28.77;19.92;;;;;;;;;;21085954;28;20051;-64
2021/12/22 21:08:09;;;;;;;28.50;18.77;;;;;;;;;;21086770;28;20048;-64
2021/12/22 21:18:11;;;;;;;27.45;18.30;;;;;;;;;;21086034;28;20051;-63
2021/12/22 21:28:14;;;;;;;56.35;41.33;;;;;;;;;;21085085;28;20044;-64
2021/12/22 21:38:16;;;;;;;66.65;38.28;;;;;;;;;;21084162;28;20059;-62
2021/12/22 21:48:19;;;;;;;146.77;70.22;;;;;;;;;;21083304;28;20094;-63
2021/12/22 21:58:21;;;;;;;51.00;30.73;;;;;;;;;;21082369;28;20087;-64
2021/12/22 22:08:23;;;;;;;100.53;55.38;;;;;;;;;;21081397;28;20048;-65
2021/12/22 22:18:25;;;;;;;32.65;21.55;;;;;;;;;;21081113;28;20426;-64
2021/12/22 22:28:27;;;;;;;26.08;18.05;;;;;;;;;;21081929;28;20051;-64
2021/12/22 22:38:29;;;;;;;28.58;17.40;;;;;;;;;;21079882;28;20515;-64
2021/12/22 22:48:31;;;;;;;24.17;14.75;;;;;;;;;;21078612;28;20056;-63
2021/12/22 22:58:33;;;;;;;24.92;15.98;;;;;;;;;;21079277;28;20044;-63
2021/12/22 23:08:35;;;;;;;79.72;39.13;;;;;;;;;;21079728;28;20044;-63
2021/12/22 23:18:38;;;;;;;104.22;61.60;;;;;;;;;;21086470;28;20075;-65
2021/12/22 23:28:40;;;;;;;42.05;24.33;;;;;;;;;;21095252;28;20109;-60
2021/12/22 23:49:11;;;;;;;31.87;23.70;;;;;;;;;;21094226;28;20048;-62
2021/12/22 23:59:13;;;;;;;32.35;20.30;;;;;;;;;;21092269;28;20052;-63
